Terminal Aerodrome Forecast
Issued by NWS

Home | Current Version | Previous Version | Text Only | Print | Product List | Glossary On
Versions: 1 2 3 4 5 6 7 8 9 10 11 12 13 14 15 16 17 18 19 20 21 22 23 24 25
000
FTUS43 KBIS 290600 AAA
TAFJMS
TAF AMD
KJMS 290658Z 2907/3006 26012G22KT P6SM BKN025
     FM290900 31025G32KT 5SM -SHRA OVC015
     FM291200 32028G38KT P6SM SCT030
     FM292200 31018G25KT P6SM SCT200=

USA.gov is the U.S. government's official web portal to all federal, state and local government web resources and services.